Time;durP1;ratioP1;P1;durP2;ratioP2;P2;SDS_P1;SDS_P2;PMS_P1;PMS_P2;Temp;Humidity;BMP_temperature;BMP_pressure;BME280_temperature;BME280_humidity;BME280_pressure;Samples;Min_cycle;Max_cycle;Signal;HPM_P1;HPM_P2
2023/10/24 00:00:43;;;;;;;23.40;9.50;;;11.00;99.90;;;;;;5073491;28;20031;-93
2023/10/24 00:03:09;;;;;;;24.42;9.60;;;11.00;99.90;;;;;;5072890;28;20061;-94
2023/10/24 00:05:34;;;;;;;22.02;9.75;;;11.00;99.90;;;;;;5072861;28;20024;-93
2023/10/24 00:08:00;;;;;;;21.98;9.77;;;11.10;99.90;;;;;;5073031;28;20115;-93
2023/10/24 00:10:25;;;;;;;18.25;10.20;;;11.10;99.90;;;;;;5073373;28;20566;-94
2023/10/24 00:12:51;;;;;;;22.48;10.23;;;11.10;99.90;;;;;;5072506;28;20020;-94
2023/10/24 00:15:17;;;;;;;20.38;10.00;;;11.20;99.90;;;;;;5072745;28;20028;-94
2023/10/24 00:17:43;;;;;;;22.15;10.68;;;11.20;99.90;;;;;;5072984;28;20028;-93
2023/10/24 00:20:09;;;;;;;20.17;9.80;;;11.20;99.90;;;;;;5072955;28;20028;-93
2023/10/24 00:22:35;;;;;;;20.17;10.00;;;11.20;99.90;;;;;;5072176;28;20433;-93
2023/10/24 00:25:01;;;;;;;19.05;8.77;;;11.20;99.90;;;;;;5073379;28;20082;-94
2023/10/24 00:27:26;;;;;;;24.63;10.00;;;11.10;99.90;;;;;;5073465;28;20072;-91
2023/10/24 00:29:52;;;;;;;18.27;8.48;;;11.10;99.90;;;;;;5072879;28;20463;-93
2023/10/24 00:32:17;;;;;;;21.23;8.75;;;11.10;99.90;;;;;;5091917;28;20051;-91
2023/10/24 00:34:43;;;;;;;15.65;8.50;;;11.10;99.90;;;;;;5092833;28;20039;-91
2023/10/24 00:37:09;;;;;;;18.20;9.50;;;11.10;99.90;;;;;;5090129;28;20029;-94
2023/10/24 00:39:34;;;;;;;23.13;9.73;;;11.00;99.90;;;;;;5075167;28;20037;-94
2023/10/24 00:42:00;;;;;;;17.95;8.75;;;11.00;99.90;;;;;;5072740;28;20026;-93
2023/10/24 00:44:27;;;;;;;18.75;9.48;;;11.00;99.90;;;;;;5073517;28;20028;-91
2023/10/24 00:46:54;;;;;;;21.38;9.23;;;11.00;99.90;;;;;;5074171;28;20016;-95
2023/10/24 00:49:20;;;;;;;18.27;8.88;;;11.00;99.90;;;;;;5072672;28;20052;-91
2023/10/24 00:51:46;;;;;;;25.25;11.07;;;11.00;99.90;;;;;;5073034;28;20124;-92
2023/10/24 00:54:12;;;;;;;23.40;9.60;;;11.00;99.90;;;;;;5072359;28;20360;-94
2023/10/24 00:56:38;;;;;;;24.15;9.43;;;11.00;99.90;;;;;;5073805;28;20027;-94
2023/10/24 00:59:05;;;;;;;21.02;9.32;;;11.00;99.90;;;;;;5088035;28;20025;-93
2023/10/24 01:01:31;;;;;;;15.38;8.73;;;11.00;99.90;;;;;;5091248;28;20024;-94
2023/10/24 01:03:58;;;;;;;21.55;10.25;;;11.00;99.90;;;;;;5082641;28;20025;-94
2023/10/24 01:06:24;;;;;;;21.60;8.88;;;11.00;99.90;;;;;;5083590;28;20024;-93
2023/10/24 01:08:50;;;;;;;17.08;7.50;;;10.90;99.90;;;;;;5090413;28;20444;-95
2023/10/24 01:11:16;;;;;;;14.77;7.38;;;11.00;99.90;;;;;;5093232;28;20102;-95
2023/10/24 01:13:41;;;;;;;16.80;7.55;;;11.00;99.90;;;;;;5093293;28;20074;-95
2023/10/24 01:16:07;;;;;;;22.38;7.75;;;11.00;99.90;;;;;;5092314;28;20073;-95
2023/10/24 01:18:33;;;;;;;22.70;8.93;;;11.00;99.90;;;;;;5092386;28;20483;-95
2023/10/24 01:20:58;;;;;;;20.52;8.52;;;11.00;99.90;;;;;;5093045;28;20024;-93
2023/10/24 01:23:28;;;;;;;15.63;7.97;;;11.00;99.90;;;;;;5092626;28;20039;-95
2023/10/24 01:25:56;;;;;;;21.85;9.77;;;11.00;99.90;;;;;;5092719;28;20051;-94
2023/10/24 01:28:24;;;;;;;23.05;10.35;;;11.00;99.90;;;;;;5092920;28;20487;-94
2023/10/24 01:30:50;;;;;;;24.98;9.45;;;11.00;99.90;;;;;;5092872;28;20581;-93
2023/10/24 01:33:15;;;;;;;18.33;9.38;;;11.00;99.90;;;;;;5094734;28;20052;-93
2023/10/24 01:35:41;;;;;;;22.27;8.85;;;11.00;99.90;;;;;;5097593;28;20165;-93
2023/10/24 01:38:06;;;;;;;20.92;9.65;;;11.00;99.90;;;;;;5096476;28;20505;-94
2023/10/24 01:40:32;;;;;;;24.73;11.77;;;11.00;99.90;;;;;;5096616;28;20024;-92
2023/10/24 01:42:58;;;;;;;24.90;10.77;;;11.00;99.90;;;;;;5096124;28;20024;-93
2023/10/24 01:45:24;;;;;;;28.55;12.15;;;11.00;99.90;;;;;;5097882;28;20134;-93
2023/10/24 01:47:49;;;;;;;25.77;11.95;;;11.00;99.90;;;;;;5100063;28;20020;-93
2023/10/24 01:50:15;;;;;;;24.38;11.73;;;11.00;99.90;;;;;;5096354;28;20040;-93
2023/10/24 01:52:40;;;;;;;27.63;12.00;;;11.00;99.90;;;;;;5095352;28;20020;-93
2023/10/24 01:55:06;;;;;;;28.10;12.18;;;11.00;99.90;;;;;;5096955;28;20032;-93
2023/10/24 01:57:32;;;;;;;29.92;12.23;;;11.00;99.90;;;;;;5096075;28;20020;-95
2023/10/24 01:59:58;;;;;;;26.20;13.05;;;11.00;99.90;;;;;;5096814;28;20024;-95
2023/10/24 02:02:23;;;;;;;26.58;11.90;;;11.00;99.90;;;;;;5097469;28;20047;-94
2023/10/24 02:04:49;;;;;;;32.80;11.48;;;11.00;99.90;;;;;;5096933;28;20030;-95
2023/10/24 02:07:15;;;;;;;26.00;11.00;;;11.00;99.90;;;;;;5095247;28;20471;-95
2023/10/24 02:09:40;;;;;;;19.67;10.35;;;11.00;99.90;;;;;;5095764;28;20064;-94
2023/10/24 02:12:06;;;;;;;27.15;11.40;;;11.00;99.90;;;;;;5095470;28;20124;-94
2023/10/24 02:14:32;;;;;;;22.30;10.30;;;11.00;99.90;;;;;;5095414;28;20099;-95
2023/10/24 02:16:58;;;;;;;18.10;9.57;;;11.00;99.90;;;;;;5094979;28;20059;-95
2023/10/24 02:19:25;;;;;;;23.80;8.75;;;11.00;99.90;;;;;;5097574;28;20109;-96
2023/10/24 02:21:50;;;;;;;16.38;7.28;;;11.00;99.90;;;;;;5095273;28;20024;-95
2023/10/24 02:24:16;;;;;;;12.65;6.75;;;11.00;99.90;;;;;;5094935;28;20028;-95
2023/10/24 02:26:42;;;;;;;11.13;5.68;;;10.90;99.90;;;;;;5094699;28;20024;-96
2023/10/24 02:29:07;;;;;;;9.52;5.20;;;10.90;99.90;;;;;;5094668;28;20048;-95
2023/10/24 02:31:33;;;;;;;16.65;5.47;;;10.90;99.90;;;;;;5094765;28;20031;-94
2023/10/24 02:33:58;;;;;;;8.95;4.50;;;10.90;99.90;;;;;;5096739;28;20107;-96
2023/10/24 02:36:24;;;;;;;11.07;4.18;;;10.90;99.90;;;;;;5106591;28;20028;-96
2023/10/24 02:38:50;;;;;;;9.63;4.43;;;10.90;99.90;;;;;;5109237;28;20017;-96
2023/10/24 02:41:15;;;;;;;11.57;5.47;;;10.90;99.90;;;;;;5108017;28;20028;-94
2023/10/24 02:43:41;;;;;;;8.10;4.47;;;10.80;99.90;;;;;;5096314;28;20031;-95
2023/10/24 02:46:07;;;;;;;11.00;5.75;;;10.80;99.90;;;;;;5097646;28;20051;-96
2023/10/24 02:48:33;;;;;;;11.95;4.80;;;10.80;99.90;;;;;;5095347;28;20031;-96
2023/10/24 02:50:59;;;;;;;10.63;4.80;;;10.80;99.90;;;;;;5095023;28;20020;-95
2023/10/24 02:53:25;;;;;;;12.30;5.07;;;10.90;99.90;;;;;;5095218;28;20104;-95
2023/10/24 02:55:51;;;;;;;9.80;5.10;;;10.90;99.90;;;;;;5096239;28;20040;-96
2023/10/24 02:58:18;;;;;;;10.07;4.85;;;10.90;99.90;;;;;;5102134;28;20027;-96
2023/10/24 03:00:45;;;;;;;14.00;5.45;;;10.90;99.90;;;;;;5105428;28;20097;-96
2023/10/24 03:03:14;;;;;;;11.90;5.32;;;10.90;99.90;;;;;;5116258;28;20048;-91
2023/10/24 03:05:40;;;;;;;9.90;5.07;;;10.90;99.90;;;;;;5116941;28;20028;-96
2023/10/24 03:08:05;;;;;;;14.18;4.53;;;10.90;99.90;;;;;;5113157;28;20020;-96
2023/10/24 03:10:31;;;;;;;11.23;5.00;;;10.80;99.90;;;;;;5111662;28;20063;-94
2023/10/24 03:12:57;;;;;;;10.60;5.00;;;10.80;99.90;;;;;;5117052;28;20021;-95
2023/10/24 03:15:23;;;;;;;8.82;5.75;;;10.80;99.90;;;;;;5117265;28;20092;-95
2023/10/24 03:17:48;;;;;;;11.15;5.57;;;10.80;99.90;;;;;;5116937;28;20020;-95
2023/10/24 03:20:14;;;;;;;11.25;4.78;;;10.80;99.90;;;;;;5117995;28;20058;-93
2023/10/24 03:22:40;;;;;;;14.25;5.88;;;10.80;99.90;;;;;;5117699;28;20055;-94
2023/10/24 03:25:07;;;;;;;13.45;5.15;;;10.80;99.90;;;;;;5110587;28;20020;-96
2023/10/24 03:27:32;;;;;;;12.23;6.00;;;10.80;99.90;;;;;;5108114;28;20044;-96
2023/10/24 03:29:59;;;;;;;8.05;4.30;;;10.80;99.90;;;;;;5110415;28;20024;-96
2023/10/24 03:32:26;;;;;;;6.22;3.45;;;10.70;99.90;;;;;;5115372;28;20044;-96
2023/10/24 03:34:52;;;;;;;5.95;4.18;;;10.70;99.90;;;;;;5117722;28;20019;-92
2023/10/24 03:37:19;;;;;;;5.35;3.70;;;10.70;99.90;;;;;;5118796;28;20012;-94
2023/10/24 03:39:45;;;;;;;6.57;3.10;;;10.70;99.90;;;;;;5118806;28;20032;-92
2023/10/24 03:42:13;;;;;;;8.35;3.70;;;10.70;99.90;;;;;;5118817;28;20043;-91
2023/10/24 03:44:40;;;;;;;5.78;3.08;;;10.60;99.90;;;;;;5118824;28;20012;-93
2023/10/24 03:47:05;;;;;;;5.32;2.88;;;10.60;99.90;;;;;;5118840;28;20012;-92
2023/10/24 03:49:31;;;;;;;4.28;2.80;;;10.60;99.90;;;;;;5118367;28;20020;-93
2023/10/24 03:51:57;;;;;;;4.93;3.30;;;10.60;99.90;;;;;;5118907;28;20042;-95
2023/10/24 03:54:22;;;;;;;5.97;3.17;;;10.60;99.90;;;;;;5118665;28;20043;-90
2023/10/24 03:56:48;;;;;;;4.15;2.58;;;10.60;99.90;;;;;;5117921;28;20942;-93
2023/10/24 03:59:14;;;;;;;5.25;2.63;;;10.50;99.90;;;;;;5119066;28;20015;-90
2023/10/24 04:01:41;;;;;;;7.20;2.83;;;10.60;99.90;;;;;;5119384;28;20024;-91
2023/10/24 04:04:06;;;;;;;5.05;2.00;;;10.60;99.90;;;;;;5118712;28;20037;-93
2023/10/24 04:06:34;;;;;;;6.05;2.67;;;10.50;99.90;;;;;;5118627;28;20012;-92
2023/10/24 04:09:04;;;;;;;5.35;2.72;;;10.50;99.90;;;;;;5118424;28;20032;-93
2023/10/24 04:11:30;;;;;;;4.70;2.85;;;10.50;99.90;;;;;;5118570;28;20038;-95
2023/10/24 04:13:56;;;;;;;5.90;2.70;;;10.40;99.90;;;;;;5118372;28;20009;-94
2023/10/24 04:16:21;;;;;;;3.80;2.58;;;10.50;99.90;;;;;;5118310;28;20044;-93
2023/10/24 04:18:47;;;;;;;7.90;3.08;;;10.40;99.90;;;;;;5116853;28;20016;-93
2023/10/24 04:21:17;;;;;;;7.55;3.35;;;10.40;99.90;;;;;;5118218;28;20043;-92
2023/10/24 04:23:43;;;;;;;7.68;3.03;;;10.40;99.90;;;;;;5118249;28;20040;-93
2023/10/24 04:26:09;;;;;;;6.10;3.10;;;10.40;99.90;;;;;;5118178;28;20012;-93
2023/10/24 04:28:35;;;;;;;5.03;3.40;;;10.40;99.90;;;;;;5117832;28;20052;-89
2023/10/24 04:31:01;;;;;;;8.70;3.95;;;10.40;99.90;;;;;;5117736;28;20063;-95
2023/10/24 04:33:27;;;;;;;6.95;4.13;;;10.40;99.90;;;;;;5117842;28;20084;-93
2023/10/24 04:35:53;;;;;;;9.63;4.80;;;10.40;99.90;;;;;;5118158;28;20024;-94
2023/10/24 04:38:19;;;;;;;11.65;5.75;;;10.40;99.90;;;;;;5118666;28;20062;-93
2023/10/24 04:40:45;;;;;;;12.10;5.90;;;10.40;99.90;;;;;;5118413;28;20016;-92
2023/10/24 04:43:11;;;;;;;13.30;6.18;;;10.30;99.90;;;;;;5116689;28;20031;-96
2023/10/24 04:45:37;;;;;;;9.85;5.30;;;10.30;99.90;;;;;;5118006;28;20041;-90
2023/10/24 04:48:04;;;;;;;10.10;5.70;;;10.30;99.90;;;;;;5118111;28;20020;-94
2023/10/24 04:50:30;;;;;;;6.75;4.70;;;10.30;99.90;;;;;;5115815;28;20107;-95
2023/10/24 04:52:56;;;;;;;13.15;5.65;;;10.30;99.90;;;;;;5116525;28;20030;-94
2023/10/24 04:55:23;;;;;;;11.20;4.32;;;10.30;99.90;;;;;;5117941;28;20035;-96
2023/10/24 04:57:49;;;;;;;10.73;5.07;;;10.30;99.90;;;;;;5117854;28;20031;-93
2023/10/24 05:00:15;;;;;;;13.13;6.28;;;10.20;99.90;;;;;;5118370;28;20076;-94
2023/10/24 05:02:43;;;;;;;12.40;5.90;;;10.20;99.90;;;;;;5117612;28;20012;-91
2023/10/24 05:05:11;;;;;;;10.95;5.72;;;10.30;99.90;;;;;;5118537;28;20038;-92
2023/10/24 05:07:37;;;;;;;10.77;5.93;;;10.20;99.90;;;;;;5119076;28;20012;-91
2023/10/24 05:10:03;;;;;;;12.32;5.50;;;10.20;99.90;;;;;;5121873;28;20019;-93
2023/10/24 05:12:29;;;;;;;13.38;6.50;;;10.20;99.90;;;;;;5121851;28;20013;-91
2023/10/24 05:14:55;;;;;;;11.30;5.55;;;10.20;99.90;;;;;;5122217;28;20074;-93
2023/10/24 05:17:21;;;;;;;11.02;6.32;;;10.20;99.90;;;;;;5122198;28;20038;-94
2023/10/24 05:19:47;;;;;;;10.00;6.57;;;10.20;99.90;;;;;;5121519;28;20091;-94
2023/10/24 05:22:13;;;;;;;12.40;6.75;;;10.20;99.90;;;;;;5121665;28;20023;-92
2023/10/24 05:24:39;;;;;;;13.38;7.10;;;10.20;99.90;;;;;;5121596;28;20016;-95
2023/10/24 05:27:05;;;;;;;13.20;6.78;;;10.10;99.90;;;;;;5121308;28;20031;-90
2023/10/24 05:29:35;;;;;;;13.57;7.10;;;10.20;99.90;;;;;;5121328;28;20032;-93
2023/10/24 05:32:01;;;;;;;13.13;6.72;;;10.10;99.90;;;;;;5120563;28;20035;-95
2023/10/24 05:34:29;;;;;;;11.10;6.38;;;10.10;99.90;;;;;;5120068;28;20079;-94
2023/10/24 05:36:56;;;;;;;14.15;7.55;;;10.10;99.90;;;;;;5117777;28;20040;-96
2023/10/24 05:39:24;;;;;;;12.48;6.70;;;10.10;99.90;;;;;;5116115;28;20032;-95
2023/10/24 05:41:50;;;;;;;11.75;6.32;;;10.10;99.90;;;;;;5120075;28;20008;-90
2023/10/24 05:44:16;;;;;;;11.77;6.20;;;10.10;99.90;;;;;;5111108;28;20027;-92
2023/10/24 05:46:41;;;;;;;10.63;6.40;;;10.10;99.90;;;;;;5109288;28;20021;-90
2023/10/24 05:49:07;;;;;;;12.07;6.07;;;10.10;99.90;;;;;;5109308;28;20024;-91
2023/10/24 05:51:33;;;;;;;11.38;5.68;;;10.10;99.90;;;;;;5110455;28;20048;-92
2023/10/24 05:53:59;;;;;;;14.48;7.03;;;10.10;99.90;;;;;;5107644;28;20032;-90
2023/10/24 05:56:25;;;;;;;9.20;5.50;;;10.10;99.90;;;;;;5110751;28;20032;-91
2023/10/24 05:58:51;;;;;;;10.40;5.43;;;10.10;99.90;;;;;;5109047;28;20088;-90
2023/10/24 06:01:17;;;;;;;7.25;4.43;;;10.00;99.90;;;;;;5110911;28;20015;-91
2023/10/24 06:03:48;;;;;;;7.00;3.63;;;10.10;99.90;;;;;;5108581;28;20016;-95
2023/10/24 06:06:14;;;;;;;8.18;3.22;;;10.00;99.90;;;;;;5115601;28;20015;-88
2023/10/24 06:08:40;;;;;;;6.25;3.53;;;10.00;99.90;;;;;;5109192;28;20034;-93
2023/10/24 06:11:05;;;;;;;7.22;2.88;;;10.00;99.90;;;;;;5109029;28;20068;-92
2023/10/24 06:13:32;;;;;;;7.05;2.67;;;10.00;99.90;;;;;;5111114;28;20000;-90
2023/10/24 06:16:20;;;;;;;5.53;2.55;;;10.00;99.90;;;;;;5115421;28;20015;-89
2023/10/24 06:18:49;;;;;;;3.53;2.33;;;10.00;99.90;;;;;;5118843;28;20012;-94
2023/10/24 06:21:15;;;;;;;6.65;2.60;;;10.00;99.90;;;;;;5084017;28;20035;-94
2023/10/24 06:23:41;;;;;;;5.95;2.33;;;9.90;99.90;;;;;;5099824;28;20009;-96
2023/10/24 06:26:14;;;;;;;10.32;2.97;;;9.90;99.90;;;;;;5098364;28;20024;-91
2023/10/24 06:28:40;;;;;;;7.65;2.70;;;9.90;99.90;;;;;;5101758;28;20049;-94
2023/10/24 06:31:06;;;;;;;4.30;2.90;;;10.00;99.90;;;;;;5116068;28;20009;-91
2023/10/24 06:33:31;;;;;;;3.78;2.53;;;10.00;99.90;;;;;;5120270;28;20016;-89
2023/10/24 06:35:57;;;;;;;7.90;2.58;;;10.00;99.90;;;;;;5119804;28;20023;-89
2023/10/24 06:38:23;;;;;;;3.47;2.38;;;10.10;99.90;;;;;;5102275;28;20024;-92
2023/10/24 06:40:50;;;;;;;4.57;2.80;;;10.10;99.90;;;;;;5104269;28;20020;-92
2023/10/24 06:43:18;;;;;;;5.72;3.28;;;10.20;99.90;;;;;;5108679;28;20076;-93
2023/10/24 06:45:45;;;;;;;5.43;3.10;;;10.10;99.90;;;;;;5108925;28;20023;-91
2023/10/24 06:48:12;;;;;;;4.25;3.40;;;10.20;99.90;;;;;;5109217;28;20009;-94
2023/10/24 06:50:39;;;;;;;4.93;2.97;;;10.20;99.90;;;;;;5112401;28;20087;-92
2023/10/24 06:53:10;;;;;;;4.88;2.55;;;10.20;99.90;;;;;;5107749;28;20023;-93
2023/10/24 06:55:37;;;;;;;5.55;2.67;;;10.20;99.90;;;;;;5103288;28;20037;-95
2023/10/24 06:58:04;;;;;;;7.22;2.30;;;10.20;99.90;;;;;;5107172;28;20032;-94
2023/10/24 07:00:31;;;;;;;3.65;2.17;;;10.20;99.90;;;;;;5108126;28;20024;-95
2023/10/24 07:02:56;;;;;;;4.22;2.30;;;10.20;99.90;;;;;;5098214;28;20092;-92
2023/10/24 07:05:22;;;;;;;4.13;2.20;;;10.20;99.90;;;;;;5096917;28;20038;-93
2023/10/24 07:07:48;;;;;;;3.85;2.10;;;10.30;99.90;;;;;;5098012;28;20017;-96
2023/10/24 07:10:14;;;;;;;11.70;2.55;;;10.30;99.90;;;;;;5097630;28;20024;-95
2023/10/24 07:12:40;;;;;;;6.07;2.15;;;10.30;99.90;;;;;;5096613;28;20066;-96
2023/10/24 07:15:08;;;;;;;3.97;1.67;;;10.30;99.90;;;;;;5097303;28;20024;-93
2023/10/24 07:17:33;;;;;;;4.30;1.95;;;10.40;99.90;;;;;;5094715;28;20035;-95
2023/10/24 07:20:00;;;;;;;4.57;1.65;;;10.30;99.90;;;;;;5113844;28;20083;-95
2023/10/24 07:22:29;;;;;;;2.55;1.73;;;10.40;99.90;;;;;;5105514;28;20020;-92
2023/10/24 07:24:54;;;;;;;7.18;2.58;;;10.40;99.90;;;;;;5108851;28;20012;-90
2023/10/24 07:27:20;;;;;;;2.38;1.70;;;10.40;99.90;;;;;;5109877;28;20038;-92
2023/10/24 07:29:46;;;;;;;4.60;2.25;;;10.50;99.90;;;;;;5110667;28;20024;-93
2023/10/24 07:32:12;;;;;;;4.90;2.65;;;10.40;99.90;;;;;;5108874;28;20012;-93
2023/10/24 07:34:41;;;;;;;5.85;2.95;;;10.40;99.90;;;;;;5098728;28;20029;-91
2023/10/24 07:37:09;;;;;;;4.10;2.25;;;10.30;99.90;;;;;;5098587;28;20080;-91
2023/10/24 07:39:36;;;;;;;4.78;2.50;;;10.30;99.90;;;;;;5104200;28;20054;-91
2023/10/24 07:42:03;;;;;;;5.43;3.55;;;10.30;99.90;;;;;;5121116;28;20070;-89
2023/10/24 07:44:29;;;;;;;6.78;2.83;;;10.30;99.90;;;;;;5106552;28;20008;-92
2023/10/24 07:46:54;;;;;;;5.50;3.40;;;10.30;99.90;;;;;;5109328;28;20020;-93
2023/10/24 07:49:20;;;;;;;8.38;3.92;;;10.30;99.90;;;;;;5106278;28;20023;-93
2023/10/24 07:51:46;;;;;;;6.93;3.95;;;10.30;99.90;;;;;;5109171;28;20023;-94
2023/10/24 07:54:12;;;;;;;8.05;4.22;;;10.30;99.90;;;;;;5108665;28;20083;-95
2023/10/24 07:56:41;;;;;;;6.15;3.55;;;10.30;99.90;;;;;;5106840;28;20030;-91
2023/10/24 07:59:10;;;;;;;5.50;3.17;;;10.30;99.90;;;;;;5109708;28;20008;-94
2023/10/24 08:01:36;;;;;;;5.03;3.65;;;10.30;99.90;;;;;;5109138;28;20035;-93
2023/10/24 08:04:05;;;;;;;10.07;4.00;;;10.20;99.90;;;;;;5109293;28;20015;-91
2023/10/24 08:06:30;;;;;;;13.43;4.93;;;10.20;99.90;;;;;;5107343;28;20012;-96
2023/10/24 08:08:56;;;;;;;6.90;4.60;;;10.20;99.90;;;;;;5105738;28;20022;-92
2023/10/24 08:11:21;;;;;;;8.68;4.20;;;10.20;99.90;;;;;;5107497;28;20012;-94
2023/10/24 08:13:47;;;;;;;6.68;3.83;;;10.20;99.90;;;;;;5107149;28;20081;-92
2023/10/24 08:16:13;;;;;;;8.07;4.72;;;10.20;99.90;;;;;;5103430;28;20012;-94
2023/10/24 08:18:40;;;;;;;9.05;5.45;;;10.20;99.90;;;;;;5105432;28;20020;-93
2023/10/24 08:21:07;;;;;;;7.90;4.70;;;10.20;99.90;;;;;;5090907;28;20043;-93
2023/10/24 08:23:35;;;;;;;8.88;5.72;;;10.10;99.90;;;;;;5108307;28;20031;-93
2023/10/24 08:26:03;;;;;;;9.18;5.38;;;10.10;99.90;;;;;;5110223;28;20016;-92
2023/10/24 08:28:28;;;;;;;7.32;5.10;;;10.10;99.90;;;;;;5107646;28;20032;-92
2023/10/24 08:30:54;;;;;;;10.68;5.70;;;10.10;99.90;;;;;;5108141;28;20017;-91
2023/10/24 08:33:20;;;;;;;9.13;5.45;;;10.10;99.90;;;;;;5110028;28;20008;-93
2023/10/24 08:35:46;;;;;;;8.00;5.05;;;10.10;99.90;;;;;;5107947;28;20012;-92
2023/10/24 08:38:12;;;;;;;13.60;5.43;;;10.10;99.90;;;;;;5108660;28;20004;-91
2023/10/24 08:40:42;;;;;;;10.73;6.05;;;10.10;99.90;;;;;;5106857;28;20047;-90
2023/10/24 08:43:10;;;;;;;8.75;5.60;;;10.10;99.90;;;;;;5109333;28;20004;-92
2023/10/24 08:45:38;;;;;;;10.88;5.10;;;10.10;99.90;;;;;;5105659;28;20093;-92
2023/10/24 08:48:07;;;;;;;11.63;5.40;;;10.10;99.90;;;;;;5106167;28;20035;-93
2023/10/24 08:50:33;;;;;;;10.07;6.07;;;10.00;99.90;;;;;;5107306;28;20058;-94
2023/10/24 08:53:02;;;;;;;12.45;6.97;;;10.00;99.90;;;;;;5103686;28;20062;-93
2023/10/24 08:55:29;;;;;;;10.20;5.88;;;10.00;99.90;;;;;;5096989;28;20013;-93
2023/10/24 08:57:57;;;;;;;12.68;5.75;;;10.00;99.90;;;;;;5104855;28;20021;-93
2023/10/24 09:00:23;;;;;;;10.02;6.05;;;10.00;99.90;;;;;;5106648;28;20060;-92
2023/10/24 09:03:10;;;;;;;9.32;5.85;;;10.00;99.90;;;;;;5106123;28;20085;-91
2023/10/24 09:05:38;;;;;;;10.07;5.72;;;10.10;99.90;;;;;;5104297;28;20024;-91
2023/10/24 09:08:04;;;;;;;10.07;5.78;;;10.10;99.90;;;;;;5118402;28;20051;-93
2023/10/24 09:10:31;;;;;;;10.80;6.28;;;10.10;99.90;;;;;;5112756;28;20028;-88
2023/10/24 09:12:59;;;;;;;9.52;5.30;;;10.10;99.90;;;;;;5110441;28;20001;-90
2023/10/24 09:15:25;;;;;;;12.38;5.32;;;10.20;99.90;;;;;;5101277;28;20025;-91
2023/10/24 09:17:53;;;;;;;11.02;6.68;;;10.10;99.90;;;;;;5102978;28;20125;-96
2023/10/24 09:20:18;;;;;;;13.00;5.07;;;10.20;99.90;;;;;;5107352;28;20024;-96
2023/10/24 09:22:45;;;;;;;13.40;6.53;;;10.20;99.90;;;;;;5098820;28;20027;-95
2023/10/24 09:25:10;;;;;;;12.15;5.70;;;10.20;99.90;;;;;;5095812;28;20088;-96
2023/10/24 09:27:36;;;;;;;9.60;5.30;;;10.20;99.90;;;;;;5102195;28;20048;-95
2023/10/24 09:30:12;;;;;;;12.65;5.47;;;10.20;99.90;;;;;;5103106;28;20067;-93
2023/10/24 09:32:45;;;;;;;9.27;4.28;;;10.20;99.90;;;;;;5088326;28;20015;-90
2023/10/24 09:35:11;;;;;;;8.50;4.80;;;10.20;99.90;;;;;;5116956;28;20088;-91
2023/10/24 09:37:47;;;;;;;9.48;4.68;;;10.30;99.90;;;;;;5098065;28;20035;-88
2023/10/24 09:40:13;;;;;;;9.20;5.03;;;10.30;99.90;;;;;;5112488;28;20023;-89
2023/10/24 09:42:42;;;;;;;10.55;5.32;;;10.30;99.90;;;;;;5118728;28;20012;-87
2023/10/24 09:45:14;;;;;;;8.40;4.32;;;10.40;99.90;;;;;;5107182;28;20010;-90
2023/10/24 09:47:41;;;;;;;8.60;5.38;;;10.40;99.90;;;;;;5108952;28;20055;-91
2023/10/24 09:50:09;;;;;;;8.48;5.38;;;10.40;99.90;;;;;;5099586;28;20051;-90
2023/10/24 09:52:35;;;;;;;10.43;4.88;;;10.40;99.90;;;;;;5118113;28;20004;-86
2023/10/24 09:55:01;;;;;;;8.95;5.13;;;10.40;99.90;;;;;;5115776;28;20016;-89
2023/10/24 09:57:28;;;;;;;8.90;5.15;;;10.50;99.90;;;;;;5118438;28;20090;-92
2023/10/24 09:59:57;;;;;;;8.95;4.78;;;10.50;99.90;;;;;;5101922;28;20023;-90
2023/10/24 10:02:24;;;;;;;10.75;5.28;;;10.50;99.90;;;;;;5107971;28;20036;-95
2023/10/24 10:04:50;;;;;;;7.78;3.95;;;10.50;99.90;;;;;;5099497;28;20012;-89
2023/10/24 10:07:17;;;;;;;6.38;4.43;;;10.50;99.90;;;;;;5102302;28;20526;-96
2023/10/24 10:09:47;;;;;;;5.35;3.78;;;10.50;99.90;;;;;;5093335;28;20039;-95
2023/10/24 10:12:13;;;;;;;7.05;4.00;;;10.60;99.90;;;;;;5091223;28;20109;-96
2023/10/24 10:15:00;;;;;;;8.57;4.40;;;10.50;99.90;;;;;;5089032;28;20029;-95
2023/10/24 10:17:51;;;;;;;7.57;3.53;;;10.50;99.90;;;;;;5096061;28;20543;-96
2023/10/24 10:20:48;;;;;;;6.85;3.20;;;10.60;99.90;;;;;;5093832;28;20051;-96
2023/10/24 10:23:42;;;;;;;5.07;3.13;;;10.60;99.90;;;;;;5098496;28;20019;-95
2023/10/24 10:26:22;;;;;;;5.95;3.45;;;10.60;99.90;;;;;;5088295;28;20038;-95
2023/10/24 10:29:21;;;;;;;4.40;3.25;;;10.70;99.90;;;;;;5094124;28;20047;-95
2023/10/24 10:32:20;;;;;;;3.58;2.75;;;10.70;99.90;;;;;;5102994;28;20445;-95
2023/10/24 10:34:45;;;;;;;4.97;2.85;;;10.70;99.90;;;;;;5078161;28;20039;-96
2023/10/24 10:37:11;;;;;;;4.50;3.00;;;10.70;99.90;;;;;;5081003;28;20015;-96
2023/10/24 10:39:37;;;;;;;6.00;3.13;;;10.80;99.90;;;;;;5077692;28;20031;-95
2023/10/24 10:42:03;;;;;;;6.95;3.45;;;10.80;99.90;;;;;;5074313;28;20526;-94
2023/10/24 10:44:42;;;;;;;5.45;3.13;;;10.80;99.90;;;;;;5091708;28;20031;-94
2023/10/24 10:47:12;;;;;;;4.23;2.93;;;10.90;99.90;;;;;;5092883;28;20028;-96
2023/10/24 10:49:46;;;;;;;5.82;2.88;;;10.90;99.90;;;;;;5085240;28;20301;-95
2023/10/24 10:52:28;;;;;;;7.55;3.10;;;10.90;99.90;;;;;;5089748;28;20013;-95
2023/10/24 10:55:21;;;;;;;4.53;3.22;;;10.90;99.90;;;;;;5082591;28;20028;-95
2023/10/24 10:58:03;;;;;;;7.00;2.72;;;10.90;99.90;;;;;;5079707;28;20031;-92
2023/10/24 11:00:37;;;;;;;5.10;2.53;;;10.90;99.90;;;;;;5090412;28;20049;-95
2023/10/24 11:03:26;;;;;;;5.57;2.83;;;10.90;99.90;;;;;;5083887;28;20021;-94
2023/10/24 11:05:52;;;;;;;5.38;2.67;;;10.90;99.90;;;;;;5091048;28;20020;-95
2023/10/24 11:08:22;;;;;;;6.07;2.97;;;10.90;99.90;;;;;;5082803;28;20016;-96
2023/10/24 11:10:54;;;;;;;6.38;2.90;;;10.90;99.90;;;;;;5082558;28;20036;-95
2023/10/24 11:13:33;;;;;;;5.22;2.63;;;10.90;99.90;;;;;;5084847;28;20012;-95
2023/10/24 11:16:02;;;;;;;4.65;2.85;;;11.00;99.90;;;;;;5086473;28;20055;-94
2023/10/24 11:18:38;;;;;;;4.88;2.90;;;11.00;99.90;;;;;;5084743;28;20031;-95
2023/10/24 11:21:05;;;;;;;4.95;2.97;;;11.00;99.90;;;;;;5093064;28;20035;-96
2023/10/24 11:23:35;;;;;;;4.68;2.67;;;11.10;99.90;;;;;;5091326;28;20106;-96
2023/10/24 11:26:02;;;;;;;6.82;2.67;;;11.10;99.90;;;;;;5090533;28;20028;-95
2023/10/24 11:28:28;;;;;;;5.72;2.92;;;11.20;99.90;;;;;;5093206;28;20082;-95
2023/10/24 11:30:55;;;;;;;7.93;3.10;;;11.20;99.90;;;;;;5093400;28;20071;-95
2023/10/24 11:33:22;;;;;;;6.60;2.58;;;11.30;99.90;;;;;;5094154;28;20024;-96
2023/10/24 11:35:47;;;;;;;7.03;2.80;;;11.30;99.90;;;;;;5094897;28;20024;-95
2023/10/24 11:38:16;;;;;;;6.03;2.60;;;11.30;99.90;;;;;;5093517;28;20077;-96
2023/10/24 11:40:46;;;;;;;4.53;2.45;;;11.30;99.90;;;;;;5091425;28;20050;-96
2023/10/24 11:43:13;;;;;;;4.70;2.67;;;11.30;99.90;;;;;;5093457;28;20095;-96
2023/10/24 11:45:39;;;;;;;7.93;2.80;;;11.30;99.90;;;;;;5092623;28;20025;-95
2023/10/24 11:48:05;;;;;;;5.60;3.25;;;11.40;99.90;;;;;;5093935;28;20111;-94
2023/10/24 11:50:41;;;;;;;5.63;2.60;;;11.40;99.90;;;;;;5077553;28;20505;-95
2023/10/24 11:53:07;;;;;;;4.20;2.40;;;11.40;99.90;;;;;;5075927;28;20459;-95
2023/10/24 11:55:33;;;;;;;6.88;2.38;;;11.40;99.90;;;;;;5082466;28;20043;-94
2023/10/24 11:57:59;;;;;;;10.35;3.25;;;11.40;99.90;;;;;;5083029;28;20035;-95
2023/10/24 12:00:32;;;;;;;6.32;2.47;;;11.40;99.90;;;;;;5090556;28;20110;-95
2023/10/24 12:03:03;;;;;;;5.25;2.42;;;11.30;99.90;;;;;;5075574;28;20028;-93
2023/10/24 12:05:30;;;;;;;4.32;2.22;;;11.30;99.90;;;;;;5116505;28;20013;-91
2023/10/24 12:07:57;;;;;;;5.10;2.28;;;11.20;99.90;;;;;;5094800;28;20090;-94
2023/10/24 12:10:23;;;;;;;7.25;2.67;;;11.20;99.90;;;;;;5092650;28;20036;-95
2023/10/24 12:12:48;;;;;;;4.85;2.50;;;11.30;99.90;;;;;;5092916;28;20086;-95
2023/10/24 12:15:15;;;;;;;7.25;2.50;;;11.30;99.90;;;;;;5088248;28;20024;-95
2023/10/24 12:17:45;;;;;;;23.17;11.43;;;11.30;99.90;;;;;;5082594;28;20059;-94
2023/10/24 12:20:12;;;;;;;18.80;8.48;;;11.30;99.90;;;;;;5097460;28;20095;-95
2023/10/24 12:22:38;;;;;;;5.57;2.70;;;11.30;99.90;;;;;;5097209;28;20035;-96
2023/10/24 12:25:03;;;;;;;7.70;2.22;;;11.20;99.90;;;;;;5094642;28;20028;-96
2023/10/24 12:27:29;;;;;;;5.20;2.67;;;11.20;99.90;;;;;;5096635;28;20395;-96
2023/10/24 12:29:56;;;;;;;4.30;2.47;;;11.10;99.90;;;;;;5111955;28;20051;-90
2023/10/24 12:32:22;;;;;;;7.85;3.35;;;11.10;99.90;;;;;;5078468;28;20026;-96
2023/10/24 12:34:48;;;;;;;7.28;3.53;;;11.10;99.90;;;;;;5096598;28;20387;-95
2023/10/24 12:37:13;;;;;;;5.10;2.15;;;11.10;99.90;;;;;;5093434;28;20490;-95
2023/10/24 12:39:39;;;;;;;6.60;2.88;;;11.10;99.90;;;;;;5078713;28;20502;-95
2023/10/24 12:42:04;;;;;;;5.40;3.15;;;11.10;99.90;;;;;;5083737;28;20055;-95